Terminal Aerodrome Forecast
Issued by NWS

Home | Current Version | Previous Version | Text Only | Print | Product List | Glossary On
Versions: 1 2 3 4 5 6 7 8 9 10 11 12 13 14 15 16 17 18 19 20 21 22 23 24 25 26
000
FTUS41 KBOX 211122
TAFHYA
TAF
KHYA 211122Z 2112/2212 17008KT P6SM SCT090
     FM211700 16009KT P6SM OVC070
     FM212100 12007KT P6SM OVC050
     FM212300 VRB03KT 5SM BR OVC008
     FM220400 29004KT 5SM BR BKN008
     FM220600 25006KT 2SM BR BKN010
     FM221000 25007KT 6SM BR BKN250=

USA.gov is the U.S. government's official web portal to all federal, state and local government web resources and services.